Time;durP1;ratioP1;P1;durP2;ratioP2;P2;SDS_P1;SDS_P2;PMS_P1;PMS_P2;Temp;Humidity;BMP_temperature;BMP_pressure;BME280_temperature;BME280_humidity;BME280_pressure;Samples;Min_cycle;Max_cycle;Signal;HPM_P1;HPM_P2
2021/04/02 00:00:29;;;;;;;19.90;10.77;;;6.90;66.20;;;;;;5005789;28;20501;-77
2021/04/02 00:02:54;;;;;;;23.08;11.13;;;6.80;66.50;;;;;;5001919;28;20402;-76
2021/04/02 00:05:21;;;;;;;23.83;10.65;;;6.80;67.20;;;;;;4999443;28;20456;-76
2021/04/02 00:07:47;;;;;;;18.00;10.90;;;6.70;67.90;;;;;;5005705;28;20468;-78
2021/04/02 00:10:24;;;;;;;17.08;10.25;;;6.70;68.10;;;;;;5000381;28;20386;-78
2021/04/02 00:12:50;;;;;;;22.85;11.10;;;6.70;68.20;;;;;;4995695;28;20752;-77
2021/04/02 00:15:20;;;;;;;21.60;11.67;;;6.60;68.60;;;;;;5000732;28;20378;-78
2021/04/02 00:17:46;;;;;;;24.33;10.60;;;6.70;68.80;;;;;;4999758;28;20409;-78
2021/04/02 00:20:16;;;;;;;22.17;10.10;;;6.70;68.60;;;;;;5001967;28;20398;-78
2021/04/02 00:22:42;;;;;;;19.15;10.80;;;6.60;68.60;;;;;;5005347;28;20397;-76
2021/04/02 00:25:09;;;;;;;24.27;11.80;;;6.60;68.40;;;;;;5016849;28;20776;-77
2021/04/02 00:27:35;;;;;;;22.02;10.90;;;6.60;68.70;;;;;;5002105;28;20410;-77
2021/04/02 00:30:01;;;;;;;19.85;11.52;;;6.60;69.60;;;;;;5004118;28;20392;-75
2021/04/02 00:32:26;;;;;;;23.77;11.53;;;6.50;70.00;;;;;;5005117;28;20408;-78
2021/04/02 00:34:53;;;;;;;22.60;11.10;;;6.50;70.60;;;;;;5004317;28;20417;-76
2021/04/02 00:37:19;;;;;;;26.73;11.60;;;6.50;70.70;;;;;;5002447;28;20962;-78
2021/04/02 00:39:46;;;;;;;20.67;10.63;;;6.50;71.30;;;;;;5006466;28;20394;-77
2021/04/02 00:42:11;;;;;;;28.83;11.43;;;6.50;70.70;;;;;;5005721;28;20398;-77
2021/04/02 00:44:37;;;;;;;19.00;11.63;;;6.50;70.80;;;;;;5014530;28;20429;-76
2021/04/02 00:47:03;;;;;;;21.55;11.23;;;6.30;71.90;;;;;;5013452;28;20417;-78
2021/04/02 00:49:28;;;;;;;22.90;12.30;;;6.40;70.50;;;;;;5009741;28;20497;-76
2021/04/02 00:51:54;;;;;;;21.80;11.77;;;6.40;70.80;;;;;;5004444;28;20504;-76
2021/04/02 00:54:19;;;;;;;18.93;11.87;;;6.40;71.00;;;;;;5001703;28;20382;-77
2021/04/02 00:56:45;;;;;;;16.03;10.60;;;6.20;72.50;;;;;;5001105;28;20410;-76
2021/04/02 00:59:11;;;;;;;17.40;10.82;;;6.30;71.30;;;;;;5007010;28;20410;-78
2021/04/02 01:01:36;;;;;;;20.33;11.32;;;6.30;71.10;;;;;;4999836;28;20801;-77
2021/04/02 01:04:02;;;;;;;21.77;12.20;;;6.30;71.30;;;;;;5002765;28;20390;-77
2021/04/02 01:06:28;;;;;;;19.38;11.15;;;6.30;70.50;;;;;;5003819;28;20429;-75
2021/04/02 01:08:54;;;;;;;18.25;10.57;;;6.30;69.40;;;;;;5000372;28;20402;-78
2021/04/02 01:11:22;;;;;;;16.67;11.05;;;6.40;68.50;;;;;;4998809;28;20379;-78
2021/04/02 01:13:52;;;;;;;19.25;12.00;;;6.40;68.60;;;;;;4997324;28;20497;-79
2021/04/02 01:16:20;;;;;;;18.00;11.40;;;6.30;69.60;;;;;;4998772;28;20474;-78
2021/04/02 01:19:11;;;;;;;22.77;11.30;;;6.30;70.40;;;;;;4996655;28;20876;-77
2021/04/02 01:21:55;;;;;;;19.45;11.38;;;6.30;71.50;;;;;;4998283;28;20771;-78
2021/04/02 01:24:21;;;;;;;18.60;10.88;;;6.30;70.80;;;;;;4990051;28;20800;-79
2021/04/02 01:26:55;;;;;;;17.90;11.80;;;6.40;69.40;;;;;;4996946;28;20450;-79
2021/04/02 01:29:25;;;;;;;21.85;12.30;;;6.50;69.40;;;;;;4994072;28;20486;-77
2021/04/02 01:31:56;;;;;;;21.77;11.65;;;6.40;70.30;;;;;;4996048;28;20395;-77
2021/04/02 01:34:34;;;;;;;19.83;11.70;;;6.40;71.40;;;;;;4976466;28;20904;-77
2021/04/02 01:37:04;;;;;;;18.42;11.50;;;6.50;70.30;;;;;;4976840;28;20443;-75
2021/04/02 01:39:33;;;;;;;20.13;11.52;;;6.70;67.50;;;;;;5010403;28;20402;-76
2021/04/02 01:42:00;;;;;;;22.05;10.57;;;6.80;65.30;;;;;;4995135;28;20406;-76
2021/04/02 01:44:29;;;;;;;23.90;12.50;;;6.70;64.30;;;;;;4993283;28;20458;-76
2021/04/02 01:46:55;;;;;;;21.50;12.20;;;6.70;66.80;;;;;;4993369;28;20494;-75
2021/04/02 01:49:21;;;;;;;21.25;12.60;;;6.50;68.70;;;;;;4994192;28;20903;-76
2021/04/02 01:51:49;;;;;;;22.85;12.07;;;6.50;68.00;;;;;;4995876;28;20402;-76
2021/04/02 01:54:16;;;;;;;23.00;13.20;;;6.40;68.90;;;;;;4995893;28;20846;-77
2021/04/02 01:56:42;;;;;;;22.40;12.73;;;6.20;70.60;;;;;;4996405;28;20465;-78
2021/04/02 01:59:09;;;;;;;25.50;12.85;;;6.20;73.40;;;;;;4996090;28;20398;-77
2021/04/02 02:01:42;;;;;;;24.70;13.52;;;6.20;73.90;;;;;;4995798;28;20413;-78
2021/04/02 02:04:08;;;;;;;19.55;12.30;;;6.40;74.00;;;;;;4995605;28;20413;-76
2021/04/02 02:06:35;;;;;;;21.67;12.00;;;6.50;73.20;;;;;;4994763;28;20458;-76
2021/04/02 02:09:04;;;;;;;21.60;11.82;;;6.80;66.90;;;;;;4994453;28;20933;-78
2021/04/02 02:11:31;;;;;;;19.63;11.35;;;7.00;62.70;;;;;;4994350;28;20494;-76
2021/04/02 02:14:02;;;;;;;21.43;11.33;;;7.00;62.40;;;;;;4993316;28;20391;-75
2021/04/02 02:16:30;;;;;;;23.08;11.32;;;7.00;62.10;;;;;;4993474;28;20426;-76
2021/04/02 02:18:58;;;;;;;24.70;11.57;;;7.00;61.80;;;;;;4994384;28;20464;-77
2021/04/02 02:21:25;;;;;;;19.60;11.52;;;6.90;62.30;;;;;;4994599;28;20461;-77
2021/04/02 02:23:51;;;;;;;21.38;11.90;;;6.80;62.80;;;;;;4994977;28;20405;-78
2021/04/02 02:26:17;;;;;;;17.65;11.30;;;6.80;63.70;;;;;;4994456;28;20410;-77
2021/04/02 02:28:44;;;;;;;28.42;11.32;;;6.80;63.70;;;;;;4996114;28;20397;-78
2021/04/02 02:31:10;;;;;;;19.73;11.15;;;6.90;64.20;;;;;;4997825;28;20474;-79
2021/04/02 02:33:36;;;;;;;21.92;11.20;;;7.00;63.40;;;;;;4996995;28;20440;-77
2021/04/02 02:36:03;;;;;;;19.00;11.13;;;7.10;61.20;;;;;;4995734;28;20755;-76
2021/04/02 02:38:30;;;;;;;20.05;10.80;;;7.20;60.20;;;;;;4992957;28;20426;-77
2021/04/02 02:40:56;;;;;;;18.23;10.70;;;7.10;58.70;;;;;;4994610;28;20429;-76
2021/04/02 02:43:22;;;;;;;18.73;11.50;;;7.00;60.00;;;;;;5004712;28;20401;-75
2021/04/02 02:45:48;;;;;;;19.75;11.50;;;7.00;60.60;;;;;;5012282;28;20494;-76
2021/04/02 02:48:14;;;;;;;21.17;10.43;;;7.00;61.50;;;;;;5006201;28;20411;-77
2021/04/02 02:50:49;;;;;;;23.45;11.48;;;6.90;60.70;;;;;;5005069;28;20446;-76
2021/04/02 02:53:20;;;;;;;20.05;10.75;;;6.80;61.00;;;;;;4995034;28;20395;-78
2021/04/02 02:55:47;;;;;;;21.48;11.25;;;6.80;62.30;;;;;;4993114;28;20521;-77
2021/04/02 02:58:15;;;;;;;20.33;10.40;;;6.70;63.60;;;;;;5001611;28;20437;-78
2021/04/02 03:00:42;;;;;;;20.80;11.10;;;6.60;64.10;;;;;;4999265;28;20832;-75
2021/04/02 03:03:15;;;;;;;25.55;11.82;;;6.50;65.10;;;;;;4993575;28;20732;-78
2021/04/02 03:05:44;;;;;;;22.90;11.55;;;6.50;66.50;;;;;;4992693;28;20767;-78
2021/04/02 03:08:13;;;;;;;20.63;11.30;;;6.50;66.80;;;;;;4991114;28;20418;-77
2021/04/02 03:10:39;;;;;;;20.90;11.17;;;6.60;66.20;;;;;;4990849;28;20406;-76
2021/04/02 03:13:06;;;;;;;23.33;10.93;;;6.60;66.40;;;;;;4992899;28;20402;-76
2021/04/02 03:15:34;;;;;;;19.20;10.40;;;6.70;64.60;;;;;;4991828;28;20398;-75
2021/04/02 03:18:06;;;;;;;18.23;10.40;;;6.70;64.10;;;;;;4991661;28;20722;-76
2021/04/02 03:20:37;;;;;;;25.08;11.57;;;6.70;64.50;;;;;;4992605;28;20779;-77
2021/04/02 03:23:05;;;;;;;23.63;11.32;;;6.70;65.70;;;;;;4992292;28;20398;-76
2021/04/02 03:25:33;;;;;;;17.88;11.25;;;6.70;65.00;;;;;;4992354;28;20410;-75
2021/04/02 03:28:00;;;;;;;22.33;10.90;;;6.70;64.20;;;;;;4992416;28;20781;-75
2021/04/02 03:30:28;;;;;;;19.73;11.10;;;6.80;63.90;;;;;;4992461;28;20394;-76
2021/04/02 03:33:04;;;;;;;20.00;11.00;;;6.90;62.80;;;;;;4992352;28;20880;-76
2021/04/02 03:35:31;;;;;;;21.52;10.52;;;6.80;63.30;;;;;;4991215;28;20398;-78
2021/04/02 03:37:57;;;;;;;22.02;11.32;;;6.90;63.00;;;;;;4991539;28;20410;-77
2021/04/02 03:40:25;;;;;;;20.10;11.40;;;6.90;62.90;;;;;;4992054;28;20399;-77
2021/04/02 03:42:53;;;;;;;21.90;10.73;;;6.90;62.10;;;;;;4992245;28;20398;-76
2021/04/02 03:45:21;;;;;;;20.65;11.88;;;6.90;62.30;;;;;;4992567;28;20395;-77
2021/04/02 03:47:50;;;;;;;20.98;11.50;;;6.90;63.80;;;;;;4992332;28;20421;-78
2021/04/02 03:50:19;;;;;;;23.85;12.40;;;6.90;62.80;;;;;;4991969;28;20430;-77
2021/04/02 03:53:08;;;;;;;27.58;12.40;;;6.90;62.30;;;;;;4992023;28;20434;-77
2021/04/02 03:55:38;;;;;;;21.97;12.80;;;6.90;62.80;;;;;;4983550;28;20511;-77
2021/04/02 03:58:07;;;;;;;25.90;13.53;;;6.90;62.60;;;;;;4994176;28;20684;-77
2021/04/02 04:00:44;;;;;;;27.58;14.40;;;6.90;62.40;;;;;;5009078;28;20396;-78
2021/04/02 04:03:11;;;;;;;28.00;15.40;;;6.80;63.20;;;;;;5011406;28;20930;-77
2021/04/02 04:05:38;;;;;;;32.20;14.65;;;6.80;63.20;;;;;;4997337;28;20404;-77
2021/04/02 04:08:08;;;;;;;30.20;15.70;;;6.70;65.10;;;;;;5010332;28;20410;-77
2021/04/02 04:10:34;;;;;;;26.42;14.48;;;6.60;65.40;;;;;;5000691;28;20386;-77
2021/04/02 04:13:02;;;;;;;28.52;14.80;;;6.50;66.40;;;;;;5011924;28;20967;-76
2021/04/02 04:15:28;;;;;;;29.42;15.13;;;6.50;68.10;;;;;;4998676;28;20913;-77
2021/04/02 04:17:55;;;;;;;26.42;15.50;;;6.50;68.20;;;;;;4995607;28;20472;-78
2021/04/02 04:20:23;;;;;;;30.67;18.00;;;6.50;67.50;;;;;;4994506;28;20402;-78
2021/04/02 04:22:50;;;;;;;30.08;17.48;;;6.40;67.10;;;;;;4994328;28;20772;-76
2021/04/02 04:25:23;;;;;;;36.65;19.80;;;6.50;67.90;;;;;;4991802;28;20732;-77
2021/04/02 04:27:49;;;;;;;44.70;23.90;;;6.50;67.70;;;;;;4991701;28;20414;-77
2021/04/02 04:30:16;;;;;;;53.72;25.92;;;6.50;66.90;;;;;;4991422;28;20417;-77
2021/04/02 04:32:42;;;;;;;68.30;30.58;;;6.50;66.50;;;;;;4994366;28;20402;-77
2021/04/02 04:35:15;;;;;;;65.73;27.90;;;6.60;66.90;;;;;;4991244;28;20400;-76
2021/04/02 04:37:43;;;;;;;71.60;31.75;;;6.60;68.00;;;;;;4992468;28;20440;-76
2021/04/02 04:40:11;;;;;;;64.18;28.95;;;6.70;66.30;;;;;;4991258;28;20402;-75
2021/04/02 04:42:38;;;;;;;52.55;23.83;;;6.70;65.50;;;;;;4990066;28;20464;-76
2021/04/02 04:45:06;;;;;;;50.50;20.70;;;6.70;65.10;;;;;;4991553;28;20430;-77
2021/04/02 04:47:31;;;;;;;67.38;27.23;;;6.50;66.60;;;;;;4990161;28;20756;-77
2021/04/02 04:49:57;;;;;;;64.37;25.97;;;6.50;68.00;;;;;;4990800;28;20454;-76
2021/04/02 04:52:24;;;;;;;62.60;27.60;;;6.50;68.80;;;;;;4991712;28;20399;-76
2021/04/02 04:54:53;;;;;;;66.40;26.23;;;6.40;68.40;;;;;;4992997;28;20554;-77
2021/04/02 04:57:20;;;;;;;79.38;29.95;;;6.30;70.00;;;;;;4994755;28;20867;-78
2021/04/02 04:59:49;;;;;;;92.90;32.47;;;6.20;71.40;;;;;;4996282;28;20401;-76
2021/04/02 05:02:17;;;;;;;100.53;35.07;;;6.20;72.20;;;;;;5012302;28;20413;-77
2021/04/02 05:04:44;;;;;;;102.25;35.38;;;6.10;73.20;;;;;;5012621;28;20395;-77
2021/04/02 05:07:11;;;;;;;89.53;32.90;;;6.00;73.10;;;;;;5009813;28;20411;-75
2021/04/02 05:09:39;;;;;;;101.73;36.07;;;6.00;73.20;;;;;;4997251;28;20536;-76
2021/04/02 05:12:09;;;;;;;82.90;33.23;;;6.00;74.10;;;;;;4991668;28;20521;-76
2021/04/02 05:14:37;;;;;;;90.72;34.08;;;6.10;73.40;;;;;;4992267;28;20445;-76
2021/04/02 05:17:04;;;;;;;63.25;26.15;;;6.10;72.20;;;;;;4994973;28;20401;-77
2021/04/02 05:19:31;;;;;;;79.03;30.17;;;6.10;70.10;;;;;;4994266;28;20398;-77
2021/04/02 05:21:56;;;;;;;81.63;31.23;;;6.00;71.80;;;;;;4993384;28;20705;-76
2021/04/02 05:24:23;;;;;;;79.87;32.23;;;6.00;73.10;;;;;;4994420;28;20772;-75
2021/04/02 05:26:49;;;;;;;93.77;37.80;;;6.00;72.30;;;;;;4994648;28;20946;-76
2021/04/02 05:29:15;;;;;;;96.80;35.80;;;6.10;71.60;;;;;;4994596;28;20398;-78
2021/04/02 05:31:41;;;;;;;89.15;38.30;;;6.20;69.50;;;;;;4995033;28;20829;-79
2021/04/02 05:34:06;;;;;;;101.30;36.72;;;6.20;70.70;;;;;;4995247;28;20830;-77
2021/04/02 05:36:32;;;;;;;107.07;40.20;;;6.20;69.40;;;;;;4995198;28;21022;-78
2021/04/02 05:38:57;;;;;;;99.90;39.73;;;6.20;69.40;;;;;;4995205;28;20418;-77
2021/04/02 05:41:31;;;;;;;99.97;40.27;;;6.40;67.90;;;;;;4995853;28;20394;-77
2021/04/02 05:44:02;;;;;;;102.80;42.17;;;6.40;65.90;;;;;;4995917;28;20442;-78
2021/04/02 05:46:30;;;;;;;101.05;40.88;;;6.60;65.40;;;;;;4995543;28;20403;-78
2021/04/02 05:49:04;;;;;;;96.55;40.50;;;6.60;63.60;;;;;;4994268;28;20432;-79
2021/04/02 05:51:30;;;;;;;94.65;41.05;;;6.60;63.70;;;;;;4993869;28;20804;-77
2021/04/02 05:53:57;;;;;;;110.53;44.33;;;6.60;63.40;;;;;;4995042;28;20422;-76
2021/04/02 05:56:23;;;;;;;110.35;44.67;;;6.50;64.30;;;;;;4995638;28;20390;-77
2021/04/02 05:58:50;;;;;;;104.53;44.07;;;6.50;65.10;;;;;;4992602;28;20473;-78
2021/04/02 06:01:17;;;;;;;112.78;46.65;;;6.50;65.10;;;;;;4993964;28;20397;-78
2021/04/02 06:03:44;;;;;;;127.47;55.03;;;6.40;66.70;;;;;;4994261;28;20433;-77
2021/04/02 06:06:13;;;;;;;106.90;46.33;;;6.40;67.70;;;;;;4995108;28;20390;-77
2021/04/02 06:08:46;;;;;;;108.10;45.95;;;6.50;65.90;;;;;;4992709;28;20402;-78
2021/04/02 06:11:13;;;;;;;114.30;46.22;;;6.60;64.70;;;;;;4994530;28;20441;-76
2021/04/02 06:13:39;;;;;;;128.32;50.88;;;6.70;63.60;;;;;;4993542;28;20429;-78
2021/04/02 06:16:06;;;;;;;117.15;48.60;;;6.60;64.50;;;;;;4994213;28;20425;-79
2021/04/02 06:18:40;;;;;;;106.75;45.45;;;6.80;62.80;;;;;;4993877;28;20457;-77
2021/04/02 06:21:07;;;;;;;117.35;48.58;;;6.80;61.80;;;;;;4994463;28;21055;-77
2021/04/02 06:23:34;;;;;;;114.15;47.20;;;6.80;62.60;;;;;;4995007;28;20414;-78
2021/04/02 06:26:06;;;;;;;172.57;77.80;;;6.90;61.40;;;;;;4993494;28;20402;-76
2021/04/02 06:28:34;;;;;;;121.40;49.80;;;7.00;67.50;;;;;;4993029;28;20410;-77
2021/04/02 06:31:02;;;;;;;119.95;53.40;;;7.30;59.70;;;;;;4993336;28;20390;-77
2021/04/02 06:33:41;;;;;;;102.55;45.80;;;7.30;58.10;;;;;;4992885;28;20394;-75
2021/04/02 06:36:32;;;;;;;101.22;45.17;;;7.50;56.10;;;;;;4993370;28;20472;-76
2021/04/02 06:38:59;;;;;;;94.63;43.45;;;7.50;54.70;;;;;;5008091;28;20398;-76
2021/04/02 06:41:27;;;;;;;103.63;45.45;;;7.50;55.40;;;;;;4993101;28;20425;-76
2021/04/02 06:44:02;;;;;;;102.18;44.58;;;7.60;54.80;;;;;;4993773;28;20403;-78
2021/04/02 06:46:31;;;;;;;98.60;41.67;;;7.90;54.70;;;;;;4993925;28;20448;-80
2021/04/02 06:51:38;;;;;;;85.82;41.67;;;8.00;50.00;;;;;;4982370;28;20420;-76
2021/04/02 06:54:04;;;;;;;85.40;39.35;;;7.80;51.80;;;;;;4973974;28;20404;-77
2021/04/02 06:56:31;;;;;;;82.03;38.30;;;7.80;51.90;;;;;;4974167;28;20865;-76
2021/04/02 06:58:59;;;;;;;78.68;39.65;;;7.80;52.70;;;;;;4973626;28;20403;-76
2021/04/02 07:01:28;;;;;;;69.18;33.05;;;7.80;52.60;;;;;;4973980;28;20414;-76
2021/04/02 07:03:54;;;;;;;56.90;29.98;;;7.70;52.30;;;;;;4974310;28;20428;-75
2021/04/02 07:06:20;;;;;;;53.05;27.52;;;7.60;54.10;;;;;;4973163;28;20428;-76
2021/04/02 07:08:47;;;;;;;43.15;24.13;;;7.70;54.50;;;;;;4976955;28;20404;-76
2021/04/02 07:11:13;;;;;;;36.25;21.52;;;7.60;53.30;;;;;;4973025;28;20443;-76
2021/04/02 07:13:50;;;;;;;44.50;25.30;;;7.60;54.30;;;;;;4973873;28;20404;-76
2021/04/02 07:16:18;;;;;;;46.45;25.13;;;7.70;53.70;;;;;;4972315;28;20450;-75
2021/04/02 07:18:43;;;;;;;41.60;21.67;;;7.80;54.10;;;;;;4979290;28;20393;-76
2021/04/02 07:21:13;;;;;;;43.80;22.57;;;7.80;52.90;;;;;;4971851;28;20388;-76
2021/04/02 07:23:40;;;;;;;43.33;23.63;;;7.80;52.50;;;;;;4974625;28;20393;-76
2021/04/02 07:26:06;;;;;;;37.13;19.70;;;7.70;54.00;;;;;;4976427;28;20723;-76
2021/04/02 07:28:32;;;;;;;40.95;23.02;;;7.40;55.90;;;;;;4980061;28;20416;-83
2021/04/02 07:30:59;;;;;;;50.75;27.42;;;7.40;56.40;;;;;;4992018;28;20475;-84
2021/04/02 07:33:25;;;;;;;50.70;27.02;;;7.40;57.70;;;;;;4989098;28;20422;-82
2021/04/02 07:35:57;;;;;;;57.88;27.42;;;7.30;57.70;;;;;;4994279;28;20396;-78
2021/04/02 07:38:26;;;;;;;65.30;31.75;;;7.40;58.10;;;;;;4993966;28;20418;-76
2021/04/02 07:40:52;;;;;;;52.33;29.30;;;7.50;57.60;;;;;;4992356;28;20472;-82
2021/04/02 07:43:18;;;;;;;58.85;30.80;;;7.50;57.60;;;;;;4985333;28;20482;-84
2021/04/02 07:45:51;;;;;;;48.42;24.52;;;7.50;57.80;;;;;;4990064;28;20720;-81
2021/04/02 07:48:25;;;;;;;46.95;24.52;;;7.60;57.50;;;;;;4989450;28;20416;-82
2021/04/02 07:50:57;;;;;;;37.20;21.08;;;7.80;55.20;;;;;;4985792;28;20400;-80
2021/04/02 07:53:25;;;;;;;45.78;22.45;;;7.90;51.50;;;;;;4992554;28;20488;-84
2021/04/02 07:56:06;;;;;;;41.20;22.70;;;8.00;51.50;;;;;;4987482;28;20492;-82
2021/04/02 07:58:33;;;;;;;43.33;23.20;;;8.20;50.00;;;;;;4992088;28;20406;-80
2021/04/02 08:01:00;;;;;;;38.72;23.38;;;8.20;49.30;;;;;;4994767;28;20419;-77
2021/04/02 08:03:29;;;;;;;52.13;28.88;;;8.30;48.80;;;;;;4987656;28;20406;-85
2021/04/02 08:05:59;;;;;;;39.65;23.60;;;8.20;49.50;;;;;;4981331;28;20396;-82
2021/04/02 08:08:26;;;;;;;41.05;24.05;;;8.20;49.20;;;;;;4981011;28;20421;-80
2021/04/02 08:11:10;;;;;;;42.90;25.00;;;8.20;48.80;;;;;;4979695;28;20418;-77
2021/04/02 08:13:50;;;;;;;47.63;27.60;;;8.10;48.20;;;;;;4986756;28;20424;-81
2021/04/02 08:16:54;;;;;;;56.30;30.15;;;8.10;52.00;;;;;;4991098;28;20384;-78
2021/04/02 08:19:32;;;;;;;55.65;33.05;;;8.10;53.10;;;;;;4988677;28;20411;-83
2021/04/02 08:22:06;;;;;;;68.70;34.53;;;8.10;50.80;;;;;;4987957;28;20447;-79
2021/04/02 08:24:46;;;;;;;61.38;32.33;;;8.20;48.50;;;;;;4979146;28;20765;-76
2021/04/02 08:27:13;;;;;;;43.13;23.85;;;8.40;48.80;;;;;;4993064;28;20420;-84
2021/04/02 08:29:41;;;;;;;40.53;22.40;;;8.50;48.40;;;;;;4995593;28;20420;-86
2021/04/02 08:32:17;;;;;;;38.20;22.15;;;8.60;46.40;;;;;;4995675;28;20422;-82
2021/04/02 08:34:43;;;;;;;36.88;21.92;;;8.70;45.50;;;;;;4988184;28;20517;-86
2021/04/02 08:37:11;;;;;;;33.30;18.45;;;8.60;44.70;;;;;;4991802;28;20455;-85
2021/04/02 08:39:38;;;;;;;41.80;21.10;;;8.40;45.90;;;;;;4994054;28;20426;-84
2021/04/02 08:42:09;;;;;;;38.97;20.38;;;8.40;48.10;;;;;;4974206;28;20404;-82
2021/04/02 08:44:45;;;;;;;42.88;20.63;;;8.40;47.10;;;;;;4974759;28;20896;-83
2021/04/02 08:47:16;;;;;;;32.97;18.77;;;8.50;46.40;;;;;;4973524;28;20412;-83
2021/04/02 08:49:59;;;;;;;30.42;17.88;;;8.50;48.00;;;;;;4972894;28;20471;-83
2021/04/02 08:52:28;;;;;;;34.65;17.90;;;8.70;47.10;;;;;;4981111;28;20433;-83
2021/04/02 08:54:58;;;;;;;31.60;17.42;;;9.00;42.20;;;;;;4984765;28;20400;-84
2021/04/02 08:57:29;;;;;;;35.70;17.13;;;9.00;41.50;;;;;;4985561;28;20417;-84
2021/04/02 08:59:55;;;;;;;22.27;14.43;;;9.00;42.10;;;;;;5007813;28;20466;-83
2021/04/02 09:02:25;;;;;;;20.57;12.13;;;9.00;43.80;;;;;;4996414;28;20607;-83
2021/04/02 09:04:51;;;;;;;18.53;11.00;;;9.10;41.70;;;;;;4997825;28;20419;-84
2021/04/02 09:07:17;;;;;;;20.33;11.70;;;9.20;41.30;;;;;;4988800;28;20451;-83
2021/04/02 09:10:21;;;;;;;;;;;;;;;;;;;;;
2021/04/02 09:13:13;;;;;;;17.50;10.98;;;9.30;42.20;;;;;;4965569;28;20476;-84
2021/04/02 09:20:08;;;;;;;;;;;;;;;;;;;;;
2021/04/02 09:22:54;;;;;;;27.13;14.05;;;9.20;39.00;;;;;;4989941;28;20432;-81
2021/04/02 09:32:16;;;;;;;33.00;21.15;;;8.60;45.30;;;;;;4960509;28;20371;-81
2021/04/02 09:38:42;;;;;;;49.63;27.52;;;9.00;40.90;;;;;;4912402;29;20419;-84
2021/04/02 09:41:09;;;;;;;54.65;32.60;;;8.90;40.90;;;;;;4928467;29;20511;-82
2021/04/02 09:43:44;;;;;;;50.83;28.85;;;9.10;41.20;;;;;;4941448;28;20471;-79
2021/04/02 09:46:13;;;;;;;54.90;30.45;;;9.20;39.70;;;;;;4981030;28;20427;-77
2021/04/02 09:48:38;;;;;;;59.38;33.00;;;9.30;38.00;;;;;;4986991;28;20419;-84
2021/04/02 09:51:07;;;;;;;66.03;37.43;;;9.10;37.50;;;;;;4995641;28;20414;-82
2021/04/02 09:53:36;;;;;;;72.20;41.55;;;8.80;39.30;;;;;;4985701;28;20885;-83
2021/04/02 09:56:02;;;;;;;82.88;43.85;;;8.70;40.50;;;;;;4985913;28;20432;-82
2021/04/02 09:58:38;;;;;;;84.95;48.40;;;8.60;41.10;;;;;;4982628;28;20458;-83
2021/04/02 10:01:04;;;;;;;92.03;48.65;;;8.60;42.50;;;;;;4993261;28;20483;-83
2021/04/02 10:03:29;;;;;;;89.50;48.93;;;8.80;40.60;;;;;;4989869;28;20416;-77
2021/04/02 10:05:55;;;;;;;97.27;49.73;;;8.90;39.00;;;;;;4984152;28;20398;-78
2021/04/02 10:08:21;;;;;;;91.97;49.53;;;9.10;38.70;;;;;;4993999;28;20450;-74
2021/04/02 10:10:46;;;;;;;83.17;47.07;;;9.20;37.40;;;;;;4980175;28;20400;-74
2021/04/02 10:13:12;;;;;;;82.80;45.67;;;9.30;36.80;;;;;;4973906;28;20396;-75
2021/04/02 10:15:37;;;;;;;76.27;43.03;;;9.40;36.30;;;;;;4973351;28;20411;-76
2021/04/02 10:18:03;;;;;;;71.93;39.13;;;9.10;38.20;;;;;;4973864;28;20396;-76
2021/04/02 10:20:29;;;;;;;63.30;35.33;;;9.00;39.80;;;;;;4971427;28;20404;-75
2021/04/02 10:22:54;;;;;;;56.17;33.23;;;9.10;39.80;;;;;;4979740;28;20401;-76
2021/04/02 10:25:20;;;;;;;62.27;33.57;;;9.20;38.60;;;;;;4990891;28;20394;-75
2021/04/02 10:27:45;;;;;;;56.20;31.90;;;9.40;37.20;;;;;;4974565;28;20524;-75
2021/04/02 10:30:11;;;;;;;50.33;28.53;;;9.50;36.90;;;;;;4973105;28;20770;-74
2021/04/02 10:32:37;;;;;;;53.78;31.30;;;9.10;36.40;;;;;;4974326;28;20399;-74
2021/04/02 10:35:03;;;;;;;56.60;31.10;;;9.00;38.20;;;;;;4976506;28;20398;-77
2021/04/02 10:37:29;;;;;;;54.50;30.45;;;9.20;37.10;;;;;;4985558;28;20878;-77
2021/04/02 10:39:55;;;;;;;49.53;29.20;;;9.00;38.40;;;;;;4975583;28;20426;-76
2021/04/02 10:42:20;;;;;;;38.07;20.17;;;9.00;40.00;;;;;;4974938;28;20392;-75
2021/04/02 10:44:46;;;;;;;29.13;16.70;;;8.70;40.20;;;;;;4975094;28;20388;-76
2021/04/02 10:47:11;;;;;;;32.03;17.27;;;8.40;42.70;;;;;;4975616;28;20404;-76
2021/04/02 10:49:37;;;;;;;28.10;16.10;;;8.30;44.50;;;;;;4976008;28;20408;-77
2021/04/02 10:52:04;;;;;;;29.15;16.38;;;8.30;44.70;;;;;;4991755;28;20400;-75
2021/04/02 10:54:30;;;;;;;30.35;17.10;;;8.20;44.80;;;;;;4998951;28;20400;-75
2021/04/02 10:56:55;;;;;;;24.88;14.45;;;8.40;45.20;;;;;;4990508;28;20440;-75
2021/04/02 10:59:21;;;;;;;27.00;14.80;;;8.50;41.70;;;;;;5001105;28;20390;-75
2021/04/02 11:01:46;;;;;;;24.10;12.93;;;8.60;41.40;;;;;;5006633;28;20387;-76
2021/04/02 11:04:12;;;;;;;41.53;20.77;;;8.70;38.70;;;;;;5002095;28;20775;-74
2021/04/02 11:06:37;;;;;;;67.93;34.13;;;8.60;38.10;;;;;;4997556;28;20426;-76
2021/04/02 11:09:03;;;;;;;71.93;35.47;;;8.50;38.20;;;;;;4992740;28;20392;-76
2021/04/02 11:11:29;;;;;;;58.70;32.22;;;8.60;39.20;;;;;;4978574;28;20722;-75
2021/04/02 11:13:54;;;;;;;62.70;32.10;;;8.70;39.70;;;;;;4977719;28;20904;-75
2021/04/02 11:16:20;;;;;;;65.53;33.38;;;8.50;41.30;;;;;;4977631;28;20448;-76
2021/04/02 11:18:46;;;;;;;80.35;38.65;;;8.40;42.90;;;;;;4975485;28;20488;-76
2021/04/02 11:21:12;;;;;;;85.03;44.10;;;8.50;42.40;;;;;;4977433;28;20800;-76
2021/04/02 11:23:38;;;;;;;79.53;41.50;;;8.50;43.60;;;;;;4978711;28;20411;-79
2021/04/02 11:26:04;;;;;;;82.80;42.37;;;8.20;43.70;;;;;;4981482;28;20384;-76
2021/04/02 11:28:30;;;;;;;76.57;42.37;;;8.20;44.60;;;;;;4977840;28;20443;-76
2021/04/02 11:30:55;;;;;;;78.65;40.70;;;8.20;43.40;;;;;;4978188;28;20851;-76
2021/04/02 11:33:21;;;;;;;90.18;45.90;;;8.10;45.50;;;;;;4981410;28;20408;-75
2021/04/02 11:35:46;;;;;;;90.05;41.83;;;8.20;44.60;;;;;;4980330;28;20395;-75
2021/04/02 11:38:12;;;;;;;91.77;47.97;;;8.10;43.90;;;;;;4978429;28;20984;-76
2021/04/02 11:40:38;;;;;;;90.67;46.53;;;8.20;44.10;;;;;;4980965;28;20500;-75
2021/04/02 11:43:04;;;;;;;86.90;47.80;;;8.30;42.30;;;;;;4980517;28;20495;-76
2021/04/02 11:45:30;;;;;;;92.78;51.65;;;8.30;41.70;;;;;;4980581;28;20866;-74
2021/04/02 11:47:55;;;;;;;90.13;47.23;;;8.30;41.50;;;;;;4985400;28;20426;-75
2021/04/02 11:50:21;;;;;;;82.50;43.63;;;8.20;40.20;;;;;;4999490;28;20429;-75
2021/04/02 11:52:47;;;;;;;79.78;48.63;;;8.10;40.70;;;;;;4990189;28;20400;-75
2021/04/02 11:55:13;;;;;;;95.13;48.45;;;8.10;41.80;;;;;;4978839;28;20483;-77
2021/04/02 11:57:39;;;;;;;81.72;45.65;;;8.20;39.90;;;;;;4988794;28;20418;-81
2021/04/02 12:00:10;;;;;;;68.93;38.70;;;8.10;40.50;;;;;;4990400;28;20387;-81
2021/04/02 12:02:36;;;;;;;74.68;37.47;;;8.10;41.20;;;;;;4993635;28;20467;-83
2021/04/02 12:05:04;;;;;;;70.18;36.60;;;8.20;40.00;;;;;;4993798;28;20391;-80
2021/04/02 12:07:30;;;;;;;64.30;33.97;;;8.30;39.70;;;;;;4985377;28;20481;-79
2021/04/02 12:09:56;;;;;;;40.45;25.90;;;8.50;38.00;;;;;;4974003;29;20389;-77
2021/04/02 12:12:22;;;;;;;30.47;18.07;;;8.70;36.80;;;;;;4971665;28;20401;-81
2021/04/02 12:14:47;;;;;;;33.78;20.85;;;8.50;37.00;;;;;;4981915;28;20443;-79
2021/04/02 12:17:13;;;;;;;40.40;21.13;;;8.40;37.80;;;;;;4996980;28;20402;-79
2021/04/02 12:19:39;;;;;;;29.48;18.70;;;8.50;37.90;;;;;;5008404;28;20408;-81
2021/04/02 12:22:05;;;;;;;27.15;15.55;;;8.70;35.90;;;;;;4991247;28;20490;-80
2021/04/02 12:24:37;;;;;;;33.00;16.98;;;8.70;35.60;;;;;;4983704;28;20404;-86
2021/04/02 12:27:14;;;;;;;27.13;15.95;;;8.90;35.20;;;;;;4983748;28;20414;-84
2021/04/02 12:29:40;;;;;;;27.67;13.60;;;9.20;33.30;;;;;;4990008;28;20412;-81
2021/04/02 12:32:06;;;;;;;25.97;13.80;;;9.30;31.90;;;;;;4990496;28;20491;-83
2021/04/02 12:34:32;;;;;;;16.55;9.38;;;9.40;31.20;;;;;;4991345;28;20404;-83
2021/04/02 12:36:58;;;;;;;20.70;11.50;;;9.40;29.40;;;;;;4987146;28;20643;-84
2021/04/02 12:39:23;;;;;;;16.50;8.32;;;9.60;29.40;;;;;;4992076;28;20433;-81
2021/04/02 12:41:49;;;;;;;14.43;8.55;;;9.50;27.50;;;;;;5005721;28;20422;-82
2021/04/02 12:44:15;;;;;;;20.80;12.27;;;9.50;29.20;;;;;;5010903;28;20391;-81
2021/04/02 12:46:41;;;;;;;24.93;14.23;;;10.00;27.00;;;;;;5009404;28;20973;-83
2021/04/02 12:49:06;;;;;;;28.07;12.00;;;10.10;24.20;;;;;;4999715;28;20396;-81
2021/04/02 12:51:32;;;;;;;23.03;14.20;;;9.70;24.30;;;;;;5027937;23;20436;-77
2021/04/02 12:53:58;;;;;;;18.35;10.05;;;9.60;25.00;;;;;;5018442;28;20446;-77
2021/04/02 12:56:23;;;;;;;28.70;18.63;;;9.50;23.60;;;;;;5034084;28;20413;-76
2021/04/02 12:58:49;;;;;;;32.85;17.67;;;10.00;21.20;;;;;;5037054;28;20384;-77
2021/04/02 13:01:14;;;;;;;16.38;10.88;;;10.50;20.20;;;;;;5036161;28;20379;-77